sensor_id;sensor_type;location;lat;lon;timestamp;P1;durP1;ratioP1;P2;durP2;ratioP2
3881;SDS011;1956;53.482;10.238;2022-08-19T00:03:38;22.17;;;14.87;;
3881;SDS011;1956;53.482;10.238;2022-08-19T00:08:38;23.40;;;15.37;;
3881;SDS011;1956;53.482;10.238;2022-08-19T00:13:39;20.73;;;15.87;;
3881;SDS011;1956;53.482;10.238;2022-08-19T00:18:39;22.83;;;15.77;;
3881;SDS011;1956;53.482;10.238;2022-08-19T00:23:40;27.10;;;17.80;;
3881;SDS011;1956;53.482;10.238;2022-08-19T00:28:41;21.30;;;15.13;;
3881;SDS011;1956;53.482;10.238;2022-08-19T00:33:41;25.50;;;18.40;;
3881;SDS011;1956;53.482;10.238;2022-08-19T00:38:42;24.60;;;18.27;;
3881;SDS011;1956;53.482;10.238;2022-08-19T00:43:43;35.47;;;19.37;;
3881;SDS011;1956;53.482;10.238;2022-08-19T00:48:43;27.37;;;18.00;;
3881;SDS011;1956;53.482;10.238;2022-08-19T00:53:44;27.67;;;20.23;;
3881;SDS011;1956;53.482;10.238;2022-08-19T00:58:44;26.00;;;17.70;;
3881;SDS011;1956;53.482;10.238;2022-08-19T01:03:45;28.10;;;19.37;;
3881;SDS011;1956;53.482;10.238;2022-08-19T01:08:45;28.40;;;20.60;;
3881;SDS011;1956;53.482;10.238;2022-08-19T01:13:46;40.10;;;25.40;;
3881;SDS011;1956;53.482;10.238;2022-08-19T01:18:46;37.00;;;21.80;;
3881;SDS011;1956;53.482;10.238;2022-08-19T01:23:48;30.00;;;20.50;;
3881;SDS011;1956;53.482;10.238;2022-08-19T01:28:49;31.27;;;21.30;;
3881;SDS011;1956;53.482;10.238;2022-08-19T01:33:52;35.07;;;23.00;;
3881;SDS011;1956;53.482;10.238;2022-08-19T01:38:54;36.47;;;23.10;;
3881;SDS011;1956;53.482;10.238;2022-08-19T01:43:55;33.77;;;23.93;;
3881;SDS011;1956;53.482;10.238;2022-08-19T01:48:56;31.27;;;22.50;;
3881;SDS011;1956;53.482;10.238;2022-08-19T01:53:56;35.70;;;23.87;;
3881;SDS011;1956;53.482;10.238;2022-08-19T01:58:59;39.87;;;25.53;;
3881;SDS011;1956;53.482;10.238;2022-08-19T02:04:02;40.90;;;26.37;;
3881;SDS011;1956;53.482;10.238;2022-08-19T02:09:03;43.43;;;26.13;;
3881;SDS011;1956;53.482;10.238;2022-08-19T02:14:05;45.27;;;28.47;;
3881;SDS011;1956;53.482;10.238;2022-08-19T02:19:07;44.73;;;26.63;;
3881;SDS011;1956;53.482;10.238;2022-08-19T02:24:07;35.43;;;26.43;;
3881;SDS011;1956;53.482;10.238;2022-08-19T02:29:07;42.87;;;27.10;;
3881;SDS011;1956;53.482;10.238;2022-08-19T02:34:08;37.43;;;26.20;;
3881;SDS011;1956;53.482;10.238;2022-08-19T02:39:09;43.47;;;26.30;;
3881;SDS011;1956;53.482;10.238;2022-08-19T02:44:09;44.20;;;25.73;;
3881;SDS011;1956;53.482;10.238;2022-08-19T02:49:10;36.47;;;24.50;;
3881;SDS011;1956;53.482;10.238;2022-08-19T02:54:11;32.30;;;24.20;;
3881;SDS011;1956;53.482;10.238;2022-08-19T02:59:12;34.83;;;23.87;;
3881;SDS011;1956;53.482;10.238;2022-08-19T03:04:15;34.40;;;23.30;;
3881;SDS011;1956;53.482;10.238;2022-08-19T03:09:16;29.80;;;21.20;;
3881;SDS011;1956;53.482;10.238;2022-08-19T03:14:18;34.70;;;22.10;;
3881;SDS011;1956;53.482;10.238;2022-08-19T03:19:19;33.50;;;23.07;;
3881;SDS011;1956;53.482;10.238;2022-08-19T03:24:21;32.53;;;23.33;;
3881;SDS011;1956;53.482;10.238;2022-08-19T03:29:21;31.33;;;21.87;;
3881;SDS011;1956;53.482;10.238;2022-08-19T03:34:23;31.70;;;20.93;;
3881;SDS011;1956;53.482;10.238;2022-08-19T03:39:28;32.00;;;21.53;;
3881;SDS011;1956;53.482;10.238;2022-08-19T03:44:29;36.80;;;21.53;;
3881;SDS011;1956;53.482;10.238;2022-08-19T03:49:31;30.37;;;21.80;;
3881;SDS011;1956;53.482;10.238;2022-08-19T03:54:33;35.47;;;21.30;;
3881;SDS011;1956;53.482;10.238;2022-08-19T03:59:34;31.93;;;20.57;;
3881;SDS011;1956;53.482;10.238;2022-08-19T04:04:36;41.07;;;20.10;;
3881;SDS011;1956;53.482;10.238;2022-08-19T04:09:41;34.37;;;19.47;;
3881;SDS011;1956;53.482;10.238;2022-08-19T04:14:41;39.47;;;22.23;;
3881;SDS011;1956;53.482;10.238;2022-08-19T04:19:42;37.50;;;22.30;;
3881;SDS011;1956;53.482;10.238;2022-08-19T04:24:43;37.77;;;24.07;;
3881;SDS011;1956;53.482;10.238;2022-08-19T04:29:43;43.43;;;23.00;;
3881;SDS011;1956;53.482;10.238;2022-08-19T04:34:44;36.07;;;22.30;;
3881;SDS011;1956;53.482;10.238;2022-08-19T04:39:44;51.07;;;23.20;;
3881;SDS011;1956;53.482;10.238;2022-08-19T04:45:04;45.10;;;25.20;;
3881;SDS011;1956;53.482;10.238;2022-08-19T04:50:09;48.30;;;25.27;;
3881;SDS011;1956;53.482;10.238;2022-08-19T04:55:11;48.93;;;25.00;;
3881;SDS011;1956;53.482;10.238;2022-08-19T05:00:11;44.93;;;24.07;;
3881;SDS011;1956;53.482;10.238;2022-08-19T05:05:12;48.30;;;24.83;;
3881;SDS011;1956;53.482;10.238;2022-08-19T05:10:14;53.83;;;26.27;;
3881;SDS011;1956;53.482;10.238;2022-08-19T05:15:14;42.33;;;25.40;;
3881;SDS011;1956;53.482;10.238;2022-08-19T05:20:14;46.63;;;27.40;;
3881;SDS011;1956;53.482;10.238;2022-08-19T05:25:33;54.50;;;27.53;;
3881;SDS011;1956;53.482;10.238;2022-08-19T05:30:34;53.80;;;27.50;;
3881;SDS011;1956;53.482;10.238;2022-08-19T05:35:35;48.43;;;27.27;;
3881;SDS011;1956;53.482;10.238;2022-08-19T05:40:37;59.87;;;29.97;;
3881;SDS011;1956;53.482;10.238;2022-08-19T05:45:40;62.87;;;32.70;;
3881;SDS011;1956;53.482;10.238;2022-08-19T05:50:41;52.20;;;30.80;;
3881;SDS011;1956;53.482;10.238;2022-08-19T05:55:42;56.30;;;29.70;;
3881;SDS011;1956;53.482;10.238;2022-08-19T06:00:43;61.80;;;32.03;;
3881;SDS011;1956;53.482;10.238;2022-08-19T06:05:44;63.57;;;33.47;;
3881;SDS011;1956;53.482;10.238;2022-08-19T06:10:45;61.20;;;32.03;;
3881;SDS011;1956;53.482;10.238;2022-08-19T06:15:46;63.67;;;33.70;;
3881;SDS011;1956;53.482;10.238;2022-08-19T06:20:46;56.77;;;32.33;;
3881;SDS011;1956;53.482;10.238;2022-08-19T06:25:47;56.20;;;29.90;;
3881;SDS011;1956;53.482;10.238;2022-08-19T06:30:47;73.47;;;33.27;;
3881;SDS011;1956;53.482;10.238;2022-08-19T06:35:48;71.93;;;34.57;;
3881;SDS011;1956;53.482;10.238;2022-08-19T06:40:48;61.47;;;31.20;;
3881;SDS011;1956;53.482;10.238;2022-08-19T06:45:48;70.30;;;32.87;;
3881;SDS011;1956;53.482;10.238;2022-08-19T06:50:51;76.10;;;33.37;;
3881;SDS011;1956;53.482;10.238;2022-08-19T06:55:52;61.73;;;32.10;;
3881;SDS011;1956;53.482;10.238;2022-08-19T07:01:02;61.97;;;32.33;;
3881;SDS011;1956;53.482;10.238;2022-08-19T07:06:04;62.17;;;32.90;;
3881;SDS011;1956;53.482;10.238;2022-08-19T07:11:11;55.37;;;30.33;;
3881;SDS011;1956;53.482;10.238;2022-08-19T07:16:13;60.17;;;32.80;;
3881;SDS011;1956;53.482;10.238;2022-08-19T07:21:23;57.10;;;29.97;;
3881;SDS011;1956;53.482;10.238;2022-08-19T07:26:28;65.20;;;31.53;;
3881;SDS011;1956;53.482;10.238;2022-08-19T07:31:32;68.20;;;31.20;;
3881;SDS011;1956;53.482;10.238;2022-08-19T07:36:37;59.73;;;30.07;;
3881;SDS011;1956;53.482;10.238;2022-08-19T07:41:39;56.47;;;30.43;;
3881;SDS011;1956;53.482;10.238;2022-08-19T07:46:41;57.10;;;29.57;;
3881;SDS011;1956;53.482;10.238;2022-08-19T07:51:45;51.90;;;30.33;;
3881;SDS011;1956;53.482;10.238;2022-08-19T07:56:47;52.03;;;27.13;;
3881;SDS011;1956;53.482;10.238;2022-08-19T08:01:48;54.40;;;31.37;;
3881;SDS011;1956;53.482;10.238;2022-08-19T08:06:50;64.77;;;32.80;;
3881;SDS011;1956;53.482;10.238;2022-08-19T08:12:14;47.63;;;30.17;;
3881;SDS011;1956;53.482;10.238;2022-08-19T08:17:17;65.17;;;34.47;;
3881;SDS011;1956;53.482;10.238;2022-08-19T08:22:19;62.80;;;32.93;;
3881;SDS011;1956;53.482;10.238;2022-08-19T08:27:40;77.27;;;35.97;;
3881;SDS011;1956;53.482;10.238;2022-08-19T08:32:43;67.07;;;32.93;;
3881;SDS011;1956;53.482;10.238;2022-08-19T08:37:44;63.20;;;34.80;;
3881;SDS011;1956;53.482;10.238;2022-08-19T08:42:48;67.47;;;32.37;;
3881;SDS011;1956;53.482;10.238;2022-08-19T08:47:52;56.83;;;29.90;;
3881;SDS011;1956;53.482;10.238;2022-08-19T08:52:55;49.27;;;28.50;;
3881;SDS011;1956;53.482;10.238;2022-08-19T08:57:59;48.00;;;27.67;;
3881;SDS011;1956;53.482;10.238;2022-08-19T09:03:03;54.73;;;26.67;;
3881;SDS011;1956;53.482;10.238;2022-08-19T09:08:13;43.50;;;25.73;;
3881;SDS011;1956;53.482;10.238;2022-08-19T09:13:41;40.10;;;23.13;;
3881;SDS011;1956;53.482;10.238;2022-08-19T09:18:46;36.00;;;22.53;;
3881;SDS011;1956;53.482;10.238;2022-08-19T09:23:50;40.13;;;23.33;;
3881;SDS011;1956;53.482;10.238;2022-08-19T09:28:52;41.33;;;24.43;;
3881;SDS011;1956;53.482;10.238;2022-08-19T09:33:53;41.17;;;25.63;;
3881;SDS011;1956;53.482;10.238;2022-08-19T09:38:57;47.50;;;27.00;;
3881;SDS011;1956;53.482;10.238;2022-08-19T09:43:57;46.87;;;25.30;;
3881;SDS011;1956;53.482;10.238;2022-08-19T09:48:59;40.93;;;23.50;;
3881;SDS011;1956;53.482;10.238;2022-08-19T09:54:00;36.10;;;23.27;;
3881;SDS011;1956;53.482;10.238;2022-08-19T09:59:02;45.63;;;24.60;;
3881;SDS011;1956;53.482;10.238;2022-08-19T10:04:04;36.17;;;22.70;;
3881;SDS011;1956;53.482;10.238;2022-08-19T10:09:09;40.27;;;24.47;;
3881;SDS011;1956;53.482;10.238;2022-08-19T10:14:10;42.50;;;24.63;;
3881;SDS011;1956;53.482;10.238;2022-08-19T10:19:11;64.53;;;26.97;;
3881;SDS011;1956;53.482;10.238;2022-08-19T10:24:11;42.17;;;23.03;;
3881;SDS011;1956;53.482;10.238;2022-08-19T10:29:12;43.33;;;24.60;;
3881;SDS011;1956;53.482;10.238;2022-08-19T10:34:13;46.30;;;24.37;;
3881;SDS011;1956;53.482;10.238;2022-08-19T10:39:14;47.70;;;23.90;;
3881;SDS011;1956;53.482;10.238;2022-08-19T10:44:14;52.23;;;24.53;;
3881;SDS011;1956;53.482;10.238;2022-08-19T10:49:16;42.73;;;26.20;;
3881;SDS011;1956;53.482;10.238;2022-08-19T10:54:19;45.27;;;23.13;;
3881;SDS011;1956;53.482;10.238;2022-08-19T10:59:21;42.87;;;22.53;;
3881;SDS011;1956;53.482;10.238;2022-08-19T11:04:23;39.03;;;24.13;;
3881;SDS011;1956;53.482;10.238;2022-08-19T11:09:24;41.87;;;23.90;;
3881;SDS011;1956;53.482;10.238;2022-08-19T11:14:25;43.70;;;25.07;;
3881;SDS011;1956;53.482;10.238;2022-08-19T11:19:27;35.60;;;24.13;;
3881;SDS011;1956;53.482;10.238;2022-08-19T11:24:27;44.23;;;25.93;;
3881;SDS011;1956;53.482;10.238;2022-08-19T11:29:28;39.87;;;23.90;;
3881;SDS011;1956;53.482;10.238;2022-08-19T11:34:29;42.97;;;23.40;;
3881;SDS011;1956;53.482;10.238;2022-08-19T11:39:31;39.50;;;24.00;;
3881;SDS011;1956;53.482;10.238;2022-08-19T11:44:32;35.87;;;23.57;;
3881;SDS011;1956;53.482;10.238;2022-08-19T11:49:33;43.67;;;24.33;;
3881;SDS011;1956;53.482;10.238;2022-08-19T11:54:35;39.63;;;22.93;;
3881;SDS011;1956;53.482;10.238;2022-08-19T11:59:36;39.53;;;22.20;;
3881;SDS011;1956;53.482;10.238;2022-08-19T12:04:36;42.93;;;22.30;;
3881;SDS011;1956;53.482;10.238;2022-08-19T12:09:36;55.20;;;24.40;;
3881;SDS011;1956;53.482;10.238;2022-08-19T12:14:39;33.30;;;22.00;;
3881;SDS011;1956;53.482;10.238;2022-08-19T12:19:39;41.30;;;24.83;;
3881;SDS011;1956;53.482;10.238;2022-08-19T12:24:39;42.00;;;23.70;;
3881;SDS011;1956;53.482;10.238;2022-08-19T12:29:40;43.30;;;25.43;;
3881;SDS011;1956;53.482;10.238;2022-08-19T12:34:41;34.23;;;22.60;;
3881;SDS011;1956;53.482;10.238;2022-08-19T12:39:42;38.73;;;25.60;;
3881;SDS011;1956;53.482;10.238;2022-08-19T12:44:43;33.53;;;22.13;;
3881;SDS011;1956;53.482;10.238;2022-08-19T12:49:44;35.67;;;23.40;;
3881;SDS011;1956;53.482;10.238;2022-08-19T12:54:45;29.90;;;21.77;;
3881;SDS011;1956;53.482;10.238;2022-08-19T12:59:45;31.80;;;20.40;;
3881;SDS011;1956;53.482;10.238;2022-08-19T13:04:45;34.70;;;20.90;;
3881;SDS011;1956;53.482;10.238;2022-08-19T13:09:46;28.60;;;18.20;;
3881;SDS011;1956;53.482;10.238;2022-08-19T13:14:46;28.90;;;20.80;;
3881;SDS011;1956;53.482;10.238;2022-08-19T13:19:49;22.60;;;17.47;;
3881;SDS011;1956;53.482;10.238;2022-08-19T13:24:50;23.50;;;18.60;;
3881;SDS011;1956;53.482;10.238;2022-08-19T13:29:51;22.70;;;16.13;;
3881;SDS011;1956;53.482;10.238;2022-08-19T13:35:10;22.10;;;16.60;;
3881;SDS011;1956;53.482;10.238;2022-08-19T13:40:15;21.13;;;15.63;;
3881;SDS011;1956;53.482;10.238;2022-08-19T13:45:19;21.70;;;14.70;;
3881;SDS011;1956;53.482;10.238;2022-08-19T13:50:29;17.10;;;15.30;;
3881;SDS011;1956;53.482;10.238;2022-08-19T13:55:31;19.43;;;15.17;;
3881;SDS011;1956;53.482;10.238;2022-08-19T14:00:38;19.50;;;15.47;;
3881;SDS011;1956;53.482;10.238;2022-08-19T14:05:41;15.23;;;13.37;;
3881;SDS011;1956;53.482;10.238;2022-08-19T14:10:41;17.77;;;14.07;;
3881;SDS011;1956;53.482;10.238;2022-08-19T14:15:44;18.40;;;12.77;;
3881;SDS011;1956;53.482;10.238;2022-08-19T14:20:45;17.73;;;13.83;;
3881;SDS011;1956;53.482;10.238;2022-08-19T14:25:45;16.40;;;12.50;;
3881;SDS011;1956;53.482;10.238;2022-08-19T14:30:46;14.13;;;11.93;;
3881;SDS011;1956;53.482;10.238;2022-08-19T14:35:46;14.67;;;12.73;;
3881;SDS011;1956;53.482;10.238;2022-08-19T14:40:47;16.43;;;14.40;;
3881;SDS011;1956;53.482;10.238;2022-08-19T14:45:48;17.07;;;11.87;;
3881;SDS011;1956;53.482;10.238;2022-08-19T14:50:49;18.60;;;16.50;;
3881;SDS011;1956;53.482;10.238;2022-08-19T14:55:49;20.27;;;14.90;;
3881;SDS011;1956;53.482;10.238;2022-08-19T15:00:50;14.13;;;12.70;;
3881;SDS011;1956;53.482;10.238;2022-08-19T15:05:50;16.70;;;12.70;;
3881;SDS011;1956;53.482;10.238;2022-08-19T15:10:51;14.50;;;12.60;;
3881;SDS011;1956;53.482;10.238;2022-08-19T15:15:52;15.00;;;12.47;;
3881;SDS011;1956;53.482;10.238;2022-08-19T15:20:52;16.73;;;13.37;;
3881;SDS011;1956;53.482;10.238;2022-08-19T15:25:54;16.13;;;13.07;;
3881;SDS011;1956;53.482;10.238;2022-08-19T15:30:54;14.67;;;12.07;;
3881;SDS011;1956;53.482;10.238;2022-08-19T15:35:55;16.27;;;11.10;;
3881;SDS011;1956;53.482;10.238;2022-08-19T15:40:57;13.60;;;11.83;;
3881;SDS011;1956;53.482;10.238;2022-08-19T15:46:18;16.07;;;12.20;;
3881;SDS011;1956;53.482;10.238;2022-08-19T15:51:21;14.27;;;9.73;;
3881;SDS011;1956;53.482;10.238;2022-08-19T15:56:22;14.67;;;13.03;;
3881;SDS011;1956;53.482;10.238;2022-08-19T16:01:23;14.77;;;13.00;;
3881;SDS011;1956;53.482;10.238;2022-08-19T16:06:43;10.83;;;9.73;;
3881;SDS011;1956;53.482;10.238;2022-08-19T16:11:47;12.07;;;10.87;;
3881;SDS011;1956;53.482;10.238;2022-08-19T16:16:48;16.97;;;10.80;;
3881;SDS011;1956;53.482;10.238;2022-08-19T16:21:49;14.20;;;12.80;;
3881;SDS011;1956;53.482;10.238;2022-08-19T16:26:52;12.73;;;11.17;;
3881;SDS011;1956;53.482;10.238;2022-08-19T16:31:53;15.30;;;12.70;;
3881;SDS011;1956;53.482;10.238;2022-08-19T16:36:55;13.50;;;12.23;;
3881;SDS011;1956;53.482;10.238;2022-08-19T16:41:56;13.27;;;11.67;;
3881;SDS011;1956;53.482;10.238;2022-08-19T16:46:57;12.20;;;10.10;;
3881;SDS011;1956;53.482;10.238;2022-08-19T16:51:57;16.83;;;11.63;;
3881;SDS011;1956;53.482;10.238;2022-08-19T16:56:58;12.23;;;11.00;;
3881;SDS011;1956;53.482;10.238;2022-08-19T17:01:59;12.00;;;10.90;;
3881;SDS011;1956;53.482;10.238;2022-08-19T17:07:00;13.10;;;11.33;;
3881;SDS011;1956;53.482;10.238;2022-08-19T17:12:00;11.77;;;10.67;;
3881;SDS011;1956;53.482;10.238;2022-08-19T17:17:01;12.47;;;10.63;;
3881;SDS011;1956;53.482;10.238;2022-08-19T17:22:01;10.97;;;9.50;;
3881;SDS011;1956;53.482;10.238;2022-08-19T17:27:02;14.40;;;11.03;;
3881;SDS011;1956;53.482;10.238;2022-08-19T17:32:04;9.90;;;9.00;;
3881;SDS011;1956;53.482;10.238;2022-08-19T17:37:06;12.40;;;9.70;;
3881;SDS011;1956;53.482;10.238;2022-08-19T17:42:07;10.73;;;9.83;;
3881;SDS011;1956;53.482;10.238;2022-08-19T17:47:07;10.97;;;9.80;;
3881;SDS011;1956;53.482;10.238;2022-08-19T17:52:07;11.10;;;10.00;;
3881;SDS011;1956;53.482;10.238;2022-08-19T17:57:08;10.53;;;9.47;;
3881;SDS011;1956;53.482;10.238;2022-08-19T18:02:09;10.70;;;9.60;;
3881;SDS011;1956;53.482;10.238;2022-08-19T18:07:09;11.77;;;9.70;;
3881;SDS011;1956;53.482;10.238;2022-08-19T18:12:11;12.80;;;10.23;;
3881;SDS011;1956;53.482;10.238;2022-08-19T18:17:13;10.40;;;9.03;;
3881;SDS011;1956;53.482;10.238;2022-08-19T18:22:26;11.70;;;9.93;;
3881;SDS011;1956;53.482;10.238;2022-08-19T18:27:28;11.90;;;10.37;;
3881;SDS011;1956;53.482;10.238;2022-08-19T18:32:29;12.53;;;8.83;;
3881;SDS011;1956;53.482;10.238;2022-08-19T18:37:33;11.03;;;9.60;;
3881;SDS011;1956;53.482;10.238;2022-08-19T18:42:33;12.20;;;11.00;;
3881;SDS011;1956;53.482;10.238;2022-08-19T18:47:52;12.07;;;10.80;;
3881;SDS011;1956;53.482;10.238;2022-08-19T18:53:11;16.60;;;12.43;;
3881;SDS011;1956;53.482;10.238;2022-08-19T18:58:12;12.87;;;11.47;;
3881;SDS011;1956;53.482;10.238;2022-08-19T19:03:14;14.80;;;11.23;;
3881;SDS011;1956;53.482;10.238;2022-08-19T19:08:14;13.90;;;12.50;;
3881;SDS011;1956;53.482;10.238;2022-08-19T19:13:16;12.77;;;11.50;;
3881;SDS011;1956;53.482;10.238;2022-08-19T19:18:16;12.97;;;10.90;;
3881;SDS011;1956;53.482;10.238;2022-08-19T19:23:16;13.63;;;11.17;;
3881;SDS011;1956;53.482;10.238;2022-08-19T19:28:18;12.20;;;11.10;;
3881;SDS011;1956;53.482;10.238;2022-08-19T19:33:23;13.10;;;11.77;;
3881;SDS011;1956;53.482;10.238;2022-08-19T19:38:24;12.93;;;11.70;;
3881;SDS011;1956;53.482;10.238;2022-08-19T19:43:25;14.00;;;12.00;;
3881;SDS011;1956;53.482;10.238;2022-08-19T19:48:28;15.40;;;12.80;;
3881;SDS011;1956;53.482;10.238;2022-08-19T19:53:28;16.23;;;14.53;;
3881;SDS011;1956;53.482;10.238;2022-08-19T19:58:29;20.77;;;16.90;;
3881;SDS011;1956;53.482;10.238;2022-08-19T20:03:30;20.50;;;17.60;;
3881;SDS011;1956;53.482;10.238;2022-08-19T20:08:31;19.30;;;17.20;;
3881;SDS011;1956;53.482;10.238;2022-08-19T20:13:50;19.60;;;17.50;;
3881;SDS011;1956;53.482;10.238;2022-08-19T20:18:50;20.60;;;17.57;;
3881;SDS011;1956;53.482;10.238;2022-08-19T20:23:51;20.23;;;18.10;;
3881;SDS011;1956;53.482;10.238;2022-08-19T20:28:52;24.40;;;17.57;;
3881;SDS011;1956;53.482;10.238;2022-08-19T20:33:53;24.20;;;20.63;;
3881;SDS011;1956;53.482;10.238;2022-08-19T20:38:53;26.97;;;22.20;;
3881;SDS011;1956;53.482;10.238;2022-08-19T20:43:54;23.70;;;21.20;;
3881;SDS011;1956;53.482;10.238;2022-08-19T20:48:56;24.40;;;20.87;;
3881;SDS011;1956;53.482;10.238;2022-08-19T20:53:58;24.20;;;20.47;;
3881;SDS011;1956;53.482;10.238;2022-08-19T20:58:58;35.20;;;29.27;;
3881;SDS011;1956;53.482;10.238;2022-08-19T21:03:59;35.90;;;31.90;;
3881;SDS011;1956;53.482;10.238;2022-08-19T21:08:59;24.53;;;21.67;;
3881;SDS011;1956;53.482;10.238;2022-08-19T21:13:59;27.33;;;24.53;;
3881;SDS011;1956;53.482;10.238;2022-08-19T21:19:00;27.67;;;23.73;;
3881;SDS011;1956;53.482;10.238;2022-08-19T21:24:01;27.33;;;24.37;;
3881;SDS011;1956;53.482;10.238;2022-08-19T21:29:02;32.97;;;28.73;;
3881;SDS011;1956;53.482;10.238;2022-08-19T21:34:02;31.73;;;26.63;;
3881;SDS011;1956;53.482;10.238;2022-08-19T21:39:03;31.63;;;26.40;;
3881;SDS011;1956;53.482;10.238;2022-08-19T21:44:03;34.20;;;29.13;;
3881;SDS011;1956;53.482;10.238;2022-08-19T21:49:04;34.17;;;28.27;;
3881;SDS011;1956;53.482;10.238;2022-08-19T21:54:04;25.13;;;22.43;;
3881;SDS011;1956;53.482;10.238;2022-08-19T21:59:05;28.60;;;21.83;;
3881;SDS011;1956;53.482;10.238;2022-08-19T22:04:06;28.47;;;21.90;;
3881;SDS011;1956;53.482;10.238;2022-08-19T22:09:06;24.90;;;21.77;;
3881;SDS011;1956;53.482;10.238;2022-08-19T22:14:07;28.97;;;23.50;;
3881;SDS011;1956;53.482;10.238;2022-08-19T22:19:07;28.53;;;23.10;;
3881;SDS011;1956;53.482;10.238;2022-08-19T22:24:08;31.23;;;23.97;;
3881;SDS011;1956;53.482;10.238;2022-08-19T22:29:09;32.43;;;26.40;;
3881;SDS011;1956;53.482;10.238;2022-08-19T22:34:09;32.50;;;24.77;;
3881;SDS011;1956;53.482;10.238;2022-08-19T22:39:10;28.87;;;24.60;;
3881;SDS011;1956;53.482;10.238;2022-08-19T22:44:10;27.23;;;23.63;;
3881;SDS011;1956;53.482;10.238;2022-08-19T22:49:11;30.77;;;24.80;;
3881;SDS011;1956;53.482;10.238;2022-08-19T22:54:11;28.77;;;24.80;;
3881;SDS011;1956;53.482;10.238;2022-08-19T22:59:12;37.13;;;26.50;;
3881;SDS011;1956;53.482;10.238;2022-08-19T23:04:12;28.47;;;24.80;;
3881;SDS011;1956;53.482;10.238;2022-08-19T23:09:12;27.27;;;24.30;;
3881;SDS011;1956;53.482;10.238;2022-08-19T23:14:13;31.50;;;26.17;;
3881;SDS011;1956;53.482;10.238;2022-08-19T23:19:14;33.40;;;25.53;;
3881;SDS011;1956;53.482;10.238;2022-08-19T23:24:15;35.00;;;26.90;;
3881;SDS011;1956;53.482;10.238;2022-08-19T23:29:15;34.40;;;27.90;;
3881;SDS011;1956;53.482;10.238;2022-08-19T23:34:35;33.23;;;24.80;;
3881;SDS011;1956;53.482;10.238;2022-08-19T23:39:35;33.90;;;26.97;;
3881;SDS011;1956;53.482;10.238;2022-08-19T23:44:36;38.80;;;28.97;;
3881;SDS011;1956;53.482;10.238;2022-08-19T23:49:37;41.90;;;30.90;;
3881;SDS011;1956;53.482;10.238;2022-08-19T23:54:38;48.20;;;33.60;;
3881;SDS011;1956;53.482;10.238;2022-08-19T23:59:38;49.13;;;31.03;;
